createdAt,value
2022-11-16T00:01:57.058Z,66.93
2022-11-16T00:04:25.147Z,67.01
2022-11-16T00:06:53.211Z,66.48
2022-11-16T00:09:25.586Z,66.46
2022-11-16T00:11:56.967Z,66.32
2022-11-16T00:14:27.088Z,66.70
2022-11-16T00:16:55.450Z,66.24
2022-11-16T00:19:24.360Z,66.71
2022-11-16T00:21:52.726Z,66.72
2022-11-16T00:24:22.374Z,67.25
2022-11-16T00:26:50.784Z,66.52
2022-11-16T00:29:22.578Z,66.72
2022-11-16T00:31:51.372Z,65.67
2022-11-16T00:34:19.732Z,65.83
2022-11-16T00:36:48.191Z,65.97
2022-11-16T00:39:17.490Z,65.99
2022-11-16T00:41:47.638Z,66.14
2022-11-16T00:44:16.215Z,66.02
2022-11-16T00:46:46.005Z,65.76
2022-11-16T00:49:13.945Z,65.67
2022-11-16T00:51:42.046Z,66.24
2022-11-16T00:54:10.765Z,66.23
2022-11-16T00:56:39.959Z,66.06
2022-11-16T00:59:08.214Z,66.61
2022-11-16T01:01:36.347Z,66.17
2022-11-16T01:04:06.005Z,66.67
2022-11-16T01:06:33.998Z,66.77
2022-11-16T01:09:02.117Z,66.58
2022-11-16T01:11:47.827Z,66.20
2022-11-16T01:14:16.433Z,66.39
2022-11-16T01:16:44.830Z,65.93
2022-11-16T01:19:14.195Z,66.12
2022-11-16T01:21:42.278Z,66.13
2022-11-16T01:24:10.250Z,66.24
2022-11-16T01:26:38.216Z,66.19
2022-11-16T01:29:06.451Z,66.06
2022-11-16T01:31:39.151Z,65.94
2022-11-16T01:34:07.121Z,65.81
2022-11-16T01:36:36.793Z,65.84
2022-11-16T01:39:06.541Z,65.53
2022-11-16T01:41:54.742Z,65.67
2022-11-16T01:44:59.416Z,65.67
2022-11-16T01:47:27.836Z,65.64
2022-11-16T01:50:05.621Z,65.49
2022-11-16T01:52:40.630Z,65.46
2022-11-16T01:55:09.575Z,65.72
2022-11-16T01:57:49.849Z,65.81
2022-11-16T02:00:18.945Z,66.30
2022-11-16T02:02:59.264Z,66.44
2022-11-16T02:05:57.265Z,66.72
2022-11-16T02:09:02.231Z,66.80
2022-11-16T02:11:49.009Z,66.31
2022-11-16T02:14:30.550Z,67.00
2022-11-16T02:17:10.640Z,67.32
2022-11-16T02:20:23.372Z,67.57
2022-11-16T02:23:11.567Z,67.05
2022-11-16T02:25:54.071Z,67.93
2022-11-16T02:28:35.348Z,67.99
2022-11-16T02:31:08.266Z,69.16
2022-11-16T02:33:41.920Z,69.05
2022-11-16T02:36:11.844Z,69.54
2022-11-16T02:38:43.012Z,69.60
2022-11-16T02:41:16.245Z,70.27
2022-11-16T02:43:47.878Z,70.28
2022-11-16T02:46:22.155Z,71.65
2022-11-16T02:48:55.296Z,72.04
2022-11-16T02:51:25.505Z,71.88
2022-11-16T02:54:02.161Z,72.94
2022-11-16T02:56:31.633Z,72.75
2022-11-16T02:59:00.628Z,73.36
2022-11-16T03:01:36.089Z,72.90
2022-11-16T03:04:11.299Z,73.81
2022-11-16T03:06:43.642Z,73.36
2022-11-16T03:09:14.352Z,73.92
2022-11-16T03:12:00.519Z,74.04
2022-11-16T03:14:36.106Z,74.71
2022-11-16T03:17:11.402Z,75.20
2022-11-16T03:19:45.172Z,73.42
2022-11-16T03:22:18.916Z,75.56
2022-11-16T03:24:47.180Z,74.91
2022-11-16T03:27:28.556Z,75.30
2022-11-16T03:30:04.410Z,76.67
2022-11-16T03:32:41.360Z,77.07
2022-11-16T03:35:18.597Z,77.40
2022-11-16T03:37:50.901Z,77.06
2022-11-16T03:40:20.258Z,76.57
2022-11-16T03:42:50.977Z,76.63
2022-11-16T03:45:20.784Z,76.60
2022-11-16T03:47:52.051Z,77.76
2022-11-16T03:50:21.237Z,77.09
2022-11-16T03:52:49.317Z,77.00
2022-11-16T03:55:17.334Z,77.96
2022-11-16T03:57:46.173Z,77.82
2022-11-16T04:00:15.245Z,78.59
2022-11-16T04:02:43.763Z,78.47
2022-11-16T04:05:39.163Z,78.19
2022-11-16T04:08:25.022Z,79.29
2022-11-16T04:11:11.042Z,78.86
2022-11-16T04:13:56.472Z,79.66
2022-11-16T04:16:42.119Z,79.66
2022-11-16T04:19:28.298Z,79.86
2022-11-16T04:22:19.297Z,79.24
2022-11-16T04:24:51.700Z,79.22
2022-11-16T04:27:39.981Z,79.97
2022-11-16T04:30:09.832Z,79.82
2022-11-16T04:32:55.890Z,79.97
2022-11-16T04:35:44.420Z,80.15
2022-11-16T04:38:14.197Z,79.59
2022-11-16T04:40:42.163Z,79.76
2022-11-16T04:43:12.988Z,79.73
2022-11-16T04:46:01.212Z,80.40
2022-11-16T04:48:36.917Z,80.88
2022-11-16T04:51:05.745Z,81.28
2022-11-16T04:53:35.862Z,81.57
2022-11-16T04:56:12.454Z,81.37
2022-11-16T04:58:40.466Z,81.22
2022-11-16T05:01:09.250Z,81.42
2022-11-16T05:03:37.305Z,82.10
2022-11-16T05:06:05.493Z,81.79
2022-11-16T05:08:36.455Z,82.03
2022-11-16T05:11:05.986Z,80.79
2022-11-16T05:13:34.171Z,81.22
2022-11-16T05:16:02.804Z,81.39
2022-11-16T05:18:30.913Z,82.14
2022-11-16T05:21:00.741Z,81.88
2022-11-16T05:23:49.341Z,82.00
2022-11-16T05:26:21.933Z,82.56
2022-11-16T05:28:50.855Z,81.59
2022-11-16T05:31:19.173Z,82.07
2022-11-16T05:33:48.149Z,81.75
2022-11-16T05:36:17.110Z,82.87
2022-11-16T05:38:45.054Z,82.27
2022-11-16T05:41:12.990Z,82.52
2022-11-16T05:43:42.315Z,82.58
2022-11-16T05:46:18.110Z,82.84
2022-11-16T05:48:46.503Z,82.77
2022-11-16T05:51:14.564Z,82.90
2022-11-16T05:53:43.025Z,83.20
2022-11-16T05:56:14.279Z,83.31
2022-11-16T05:58:45.225Z,83.09
2022-11-16T06:01:13.432Z,83.69
2022-11-16T06:03:41.345Z,83.59
2022-11-16T06:06:09.935Z,83.52
2022-11-16T06:08:38.283Z,84.60
2022-11-16T06:11:11.507Z,84.62
2022-11-16T06:13:40.378Z,84.15
2022-11-16T06:16:10.962Z,84.33
2022-11-16T06:18:39.924Z,84.29
2022-11-16T06:21:09.662Z,84.61
2022-11-16T06:23:38.176Z,84.24
2022-11-16T06:26:07.035Z,83.96
2022-11-16T06:28:36.560Z,84.32
2022-11-16T06:31:05.906Z,84.34
2022-11-16T06:33:39.321Z,84.75
2022-11-16T06:36:13.274Z,85.11
2022-11-16T06:38:41.355Z,84.35
2022-11-16T06:41:10.396Z,85.16
2022-11-16T06:43:44.045Z,85.01
2022-11-16T06:46:12.092Z,85.63
2022-11-16T06:48:42.511Z,84.76
2022-11-16T06:51:13.808Z,84.44
2022-11-16T06:53:41.725Z,85.52
2022-11-16T06:56:11.910Z,84.94
2022-11-16T06:58:44.465Z,84.65
2022-11-16T07:01:14.324Z,84.82
2022-11-16T07:03:45.346Z,84.63
2022-11-16T07:06:14.879Z,85.19
2022-11-16T07:08:45.613Z,85.28
2022-11-16T07:11:16.445Z,85.71
2022-11-16T07:13:44.567Z,84.97
2022-11-16T07:16:13.182Z,85.88
2022-11-16T07:18:48.338Z,85.94
2022-11-16T07:21:18.072Z,86.16
2022-11-16T07:23:46.588Z,85.61
2022-11-16T07:26:19.618Z,86.00
2022-11-16T07:28:53.635Z,86.21
2022-11-16T07:31:23.501Z,85.93
2022-11-16T07:34:12.697Z,85.47
2022-11-16T07:36:51.480Z,85.65
2022-11-16T07:39:19.484Z,85.67
2022-11-16T07:41:47.462Z,85.95
2022-11-16T07:44:29.455Z,86.45
2022-11-16T07:47:07.671Z,86.18
2022-11-16T07:49:38.541Z,86.20
2022-11-16T07:52:16.503Z,85.84
2022-11-16T07:55:02.706Z,86.00
2022-11-16T07:59:27.388Z,86.74
2022-11-16T08:01:56.595Z,86.99
2022-11-16T08:04:24.722Z,85.75
2022-11-16T08:06:52.738Z,85.98
2022-11-16T08:09:22.183Z,85.68
2022-11-16T08:11:51.742Z,85.43
2022-11-16T08:14:20.239Z,85.81
2022-11-16T08:16:52.061Z,86.00
2022-11-16T08:19:20.114Z,84.95
2022-11-16T08:21:48.420Z,85.82
2022-11-16T08:24:17.635Z,86.72
2022-11-16T08:26:46.551Z,86.28
2022-11-16T08:29:15.987Z,86.80
2022-11-16T08:31:49.278Z,86.17
2022-11-16T08:34:22.072Z,86.37
2022-11-16T08:36:53.469Z,86.53
2022-11-16T08:39:27.303Z,85.43
2022-11-16T08:41:55.325Z,85.84
2022-11-16T08:44:23.356Z,85.58
2022-11-16T08:46:54.242Z,85.99
2022-11-16T08:49:30.502Z,85.76
2022-11-16T08:51:59.019Z,85.89
2022-11-16T08:54:29.659Z,87.81
2022-11-16T08:56:58.031Z,85.82
2022-11-16T08:59:26.201Z,86.02
2022-11-16T09:01:57.800Z,85.58
2022-11-16T09:04:25.830Z,85.15
2022-11-16T09:06:55.153Z,92.43
2022-11-16T09:09:23.134Z,84.74
2022-11-16T09:11:53.517Z,85.46
2022-11-16T09:14:22.055Z,85.63
2022-11-16T09:16:49.956Z,86.75
2022-11-16T09:19:17.871Z,85.91
2022-11-16T09:21:45.911Z,86.29
2022-11-16T09:24:15.227Z,86.23
2022-11-16T09:26:43.582Z,86.19
2022-11-16T09:29:14.276Z,85.79
2022-11-16T09:31:43.198Z,85.41
2022-11-16T09:34:11.342Z,85.54
2022-11-16T09:36:39.386Z,85.50
2022-11-16T09:42:09.131Z,86.08
2022-11-16T09:44:54.600Z,85.87
2022-11-16T09:47:26.128Z,86.76
2022-11-16T09:50:01.574Z,86.51
2022-11-16T09:52:35.380Z,87.17
2022-11-16T09:55:21.330Z,86.82
2022-11-16T09:57:54.549Z,86.45
2022-11-16T10:00:24.112Z,94.75
2022-11-16T10:03:02.618Z,86.76
2022-11-16T10:05:35.224Z,86.68
2022-11-16T10:08:10.763Z,85.72
2022-11-16T10:10:41.673Z,86.69
2022-11-16T10:13:26.133Z,86.56
2022-11-16T10:16:06.060Z,86.90
2022-11-16T10:18:42.429Z,87.22
2022-11-16T10:21:37.299Z,86.91
2022-11-16T10:24:27.021Z,86.59
2022-11-16T10:27:22.220Z,86.74
2022-11-16T10:30:03.168Z,87.35
2022-11-16T10:32:34.621Z,86.51
2022-11-16T10:35:09.199Z,87.45
2022-11-16T10:37:41.399Z,86.90
2022-11-16T10:40:20.367Z,86.55
2022-11-16T10:42:56.371Z,86.86
2022-11-16T10:45:32.611Z,87.30
2022-11-16T10:48:05.533Z,87.20
2022-11-16T10:50:38.456Z,87.45
2022-11-16T10:53:06.639Z,86.61
2022-11-16T10:55:34.669Z,85.84
2022-11-16T10:58:05.146Z,86.32
2022-11-16T11:00:47.005Z,86.21
2022-11-16T11:03:15.435Z,86.00
2022-11-16T11:05:53.809Z,86.84
2022-11-16T11:08:30.339Z,86.97
2022-11-16T11:11:01.901Z,86.64
2022-11-16T11:13:30.073Z,87.02
2022-11-16T11:16:18.920Z,86.77
2022-11-16T11:18:46.920Z,88.47
2022-11-16T11:21:19.652Z,87.94
2022-11-16T11:23:50.801Z,86.99
2022-11-16T11:26:36.956Z,86.58
2022-11-16T11:29:18.066Z,86.53
2022-11-16T11:31:50.575Z,85.84
2022-11-16T11:34:22.992Z,85.84
2022-11-16T11:36:55.166Z,85.88
2022-11-16T11:39:32.578Z,86.21
2022-11-16T11:42:07.199Z,85.68
2022-11-16T11:44:49.138Z,86.41
2022-11-16T11:50:22.582Z,85.14
2022-11-16T11:53:03.829Z,86.77
2022-11-16T11:55:31.988Z,86.01
2022-11-16T11:58:01.603Z,85.79
2022-11-16T12:00:40.524Z,85.89
2022-11-16T12:03:32.873Z,85.93
2022-11-16T12:06:18.483Z,85.74
2022-11-16T12:09:13.805Z,86.19
2022-11-16T12:11:59.237Z,86.48
2022-11-16T12:14:42.586Z,85.89
2022-11-16T12:17:19.786Z,86.36
2022-11-16T12:20:17.183Z,86.63
2022-11-16T12:23:03.729Z,86.30
2022-11-16T12:25:46.098Z,85.97
2022-11-16T12:28:25.913Z,85.90
2022-11-16T12:31:08.684Z,85.93
2022-11-16T12:33:45.257Z,85.98
2022-11-16T12:36:25.610Z,85.70
2022-11-16T12:39:04.797Z,86.09
2022-11-16T12:41:54.587Z,85.82
2022-11-16T12:44:31.960Z,86.09
2022-11-16T12:47:11.046Z,86.25
2022-11-16T12:50:02.297Z,86.93
2022-11-16T12:52:44.822Z,87.11
2022-11-16T12:55:26.698Z,86.83
2022-11-16T12:58:08.537Z,86.29
2022-11-16T13:00:50.004Z,86.42
2022-11-16T13:03:24.624Z,86.31
2022-11-16T13:06:01.252Z,86.21
2022-11-16T13:08:46.002Z,87.30
2022-11-16T13:11:19.324Z,86.89
2022-11-16T13:13:53.614Z,87.13
2022-11-16T13:16:23.672Z,87.51
2022-11-16T13:18:53.254Z,87.24
2022-11-16T13:21:32.472Z,86.96
2022-11-16T13:24:13.498Z,86.76
2022-11-16T13:26:46.528Z,87.01
2022-11-16T13:29:24.613Z,86.77
2022-11-16T13:31:59.009Z,87.47
2022-11-16T13:34:32.396Z,86.72
2022-11-16T13:37:00.362Z,87.29
2022-11-16T13:40:01.936Z,87.26
2022-11-16T13:42:33.041Z,86.98
2022-11-16T13:45:09.240Z,86.99
2022-11-16T13:47:38.507Z,86.29
2022-11-16T13:50:17.854Z,86.27
2022-11-16T13:55:44.462Z,87.09
2022-11-16T13:58:21.810Z,86.53
2022-11-16T14:00:58.584Z,86.23
2022-11-16T14:03:30.238Z,87.11
2022-11-16T14:05:58.530Z,87.17
2022-11-16T14:08:46.552Z,87.04
2022-11-16T14:11:33.650Z,87.41
2022-11-16T14:14:06.865Z,87.34
2022-11-16T14:16:56.066Z,87.04
2022-11-16T14:19:54.962Z,87.77
2022-11-16T14:22:48.388Z,87.75
2022-11-16T14:25:33.349Z,88.13
2022-11-16T14:28:14.305Z,87.74
2022-11-16T14:30:55.431Z,88.39
2022-11-16T14:33:32.369Z,88.14
2022-11-16T14:36:03.295Z,87.91
2022-11-16T14:38:34.407Z,88.85
2022-11-16T14:41:05.572Z,88.23
2022-11-16T14:43:40.039Z,87.08
2022-11-16T14:46:18.775Z,88.34
2022-11-16T14:48:47.969Z,88.16
2022-11-16T14:51:20.324Z,87.47
2022-11-16T14:53:51.634Z,88.04
2022-11-16T14:56:20.396Z,87.65
2022-11-16T14:58:53.528Z,87.72
2022-11-16T15:01:25.829Z,88.66
2022-11-16T15:03:58.203Z,87.95
2022-11-16T15:06:27.803Z,87.87
2022-11-16T15:08:58.972Z,87.86
2022-11-16T15:11:49.211Z,87.92
2022-11-16T15:14:23.905Z,87.62
2022-11-16T15:16:54.710Z,88.21
2022-11-16T15:19:23.423Z,87.92
2022-11-16T15:21:53.616Z,88.14
2022-11-16T15:24:31.512Z,87.66
2022-11-16T15:27:11.541Z,87.42
2022-11-16T15:29:39.977Z,87.65
2022-11-16T15:32:16.622Z,86.92
2022-11-16T15:34:48.672Z,87.29
2022-11-16T15:37:28.003Z,87.41
2022-11-16T15:39:57.380Z,87.17
2022-11-16T15:42:28.016Z,87.60
2022-11-16T15:44:56.970Z,87.43
2022-11-16T15:47:26.979Z,87.63
2022-11-16T15:49:55.286Z,88.02
2022-11-16T15:52:50.054Z,88.06
2022-11-16T15:55:27.748Z,87.91
2022-11-16T15:58:06.059Z,87.10
2022-11-16T16:00:36.479Z,87.37
2022-11-16T16:03:20.312Z,87.43
2022-11-16T16:05:49.810Z,87.44
2022-11-16T16:08:34.950Z,87.15
2022-11-16T16:11:10.313Z,87.40
2022-11-16T16:13:40.520Z,87.48
2022-11-16T16:16:14.101Z,87.14
2022-11-16T16:18:44.438Z,87.46
2022-11-16T16:21:14.363Z,87.03
2022-11-16T16:23:46.640Z,86.99
2022-11-16T16:26:15.427Z,86.72
2022-11-16T16:28:43.920Z,86.24
2022-11-16T16:31:12.787Z,87.30
2022-11-16T16:33:40.700Z,86.88
2022-11-16T16:36:11.659Z,87.00
2022-11-16T16:38:39.756Z,86.19
2022-11-16T16:41:08.581Z,86.49
2022-11-16T16:43:36.909Z,87.15
2022-11-16T16:46:05.661Z,86.37
2022-11-16T16:48:34.266Z,87.36
2022-11-16T16:51:02.219Z,86.46
2022-11-16T16:53:31.557Z,86.57
2022-11-16T16:56:01.440Z,86.27
2022-11-16T16:58:29.393Z,86.75
2022-11-16T17:01:01.353Z,86.61
2022-11-16T17:03:31.426Z,86.59
2022-11-16T17:06:01.663Z,86.62
2022-11-16T17:08:35.622Z,86.61
2022-11-16T17:11:04.359Z,86.75
2022-11-16T17:13:32.425Z,86.86
2022-11-16T17:16:00.611Z,86.37
2022-11-16T17:18:28.552Z,85.98
2022-11-16T17:20:56.609Z,86.01
2022-11-16T17:23:24.565Z,86.19
2022-11-16T17:25:53.834Z,86.60
2022-11-16T17:28:21.771Z,86.42
2022-11-16T17:30:49.744Z,86.45
2022-11-16T17:33:17.713Z,86.85
2022-11-16T17:35:45.602Z,86.07
2022-11-16T17:38:13.577Z,86.45
2022-11-16T17:40:41.491Z,85.96
2022-11-16T17:43:10.741Z,85.88
2022-11-16T17:45:38.677Z,85.66
2022-11-16T17:48:06.997Z,86.07
2022-11-16T17:50:34.933Z,86.23
2022-11-16T17:53:03.004Z,85.41
2022-11-16T17:55:30.952Z,85.94
2022-11-16T17:57:59.411Z,86.38
2022-11-16T18:00:28.721Z,86.10
2022-11-16T18:02:56.596Z,85.88
2022-11-16T18:05:24.817Z,85.78
2022-11-16T18:07:52.738Z,85.96
2022-11-16T18:10:20.643Z,85.82
2022-11-16T18:12:48.643Z,86.05
2022-11-16T18:15:33.188Z,85.88
2022-11-16T18:18:06.075Z,85.35
2022-11-16T18:20:37.446Z,85.92
2022-11-16T18:23:06.186Z,86.20
2022-11-16T18:25:36.626Z,84.94
2022-11-16T18:28:04.627Z,85.41
2022-11-16T18:30:32.552Z,85.67
2022-11-16T18:33:00.475Z,85.18
2022-11-16T18:35:29.740Z,85.87
2022-11-16T18:37:57.689Z,85.39
2022-11-16T18:40:25.620Z,85.64
2022-11-16T18:42:53.655Z,85.84
2022-11-16T18:45:21.598Z,85.37
2022-11-16T18:47:49.568Z,84.70
2022-11-16T18:50:22.656Z,85.03
2022-11-16T18:52:54.900Z,85.50
2022-11-16T18:55:22.963Z,85.50
2022-11-16T18:57:50.904Z,85.37
2022-11-16T19:00:20.288Z,85.38
2022-11-16T19:02:48.271Z,85.22
2022-11-16T19:05:16.222Z,85.43
2022-11-16T19:07:44.168Z,85.37
2022-11-16T19:10:14.887Z,85.03
2022-11-16T19:12:42.907Z,85.32
2022-11-16T19:15:11.573Z,84.88
2022-11-16T19:17:59.288Z,85.02
2022-11-16T19:20:27.626Z,85.04
2022-11-16T19:22:55.623Z,84.66
2022-11-16T19:25:24.999Z,84.89
2022-11-16T19:27:53.050Z,84.38
2022-11-16T19:30:21.210Z,84.02
2022-11-16T19:32:49.337Z,84.79
2022-11-16T19:35:17.509Z,84.71
2022-11-16T19:37:45.759Z,84.87
2022-11-16T19:40:14.287Z,84.54
2022-11-16T19:42:43.879Z,84.70
2022-11-16T19:45:12.911Z,84.39
2022-11-16T19:47:41.113Z,83.89
2022-11-16T19:50:11.863Z,84.66
2022-11-16T19:52:39.938Z,84.44
2022-11-16T19:55:08.614Z,84.39
2022-11-16T19:57:36.679Z,84.08
2022-11-16T20:00:07.603Z,83.75
2022-11-16T20:02:36.502Z,84.29
2022-11-16T20:05:04.736Z,84.43
2022-11-16T20:07:32.817Z,84.05
2022-11-16T20:10:00.821Z,83.97
2022-11-16T20:12:29.058Z,84.44
2022-11-16T20:14:57.134Z,83.97
2022-11-16T20:17:26.506Z,84.48
2022-11-16T20:19:54.507Z,83.92
2022-11-16T20:22:22.524Z,83.73
2022-11-16T20:24:50.500Z,83.46
2022-11-16T20:27:18.576Z,83.98
2022-11-16T20:29:46.652Z,83.87
2022-11-16T20:32:14.629Z,84.02
2022-11-16T20:34:44.024Z,83.95
2022-11-16T20:37:12.019Z,83.89
2022-11-16T20:39:40.019Z,84.30
2022-11-16T20:42:08.802Z,83.89
2022-11-16T20:44:36.871Z,84.28
2022-11-16T20:47:04.813Z,84.81
2022-11-16T20:49:32.755Z,83.84
2022-11-16T20:52:02.134Z,83.80
2022-11-16T20:54:30.038Z,83.94
2022-11-16T20:56:57.985Z,84.20
2022-11-16T20:59:25.963Z,84.17
2022-11-16T21:01:54.042Z,83.89
2022-11-16T21:04:22.343Z,83.91
2022-11-16T21:06:50.416Z,84.60
2022-11-16T21:09:22.793Z,84.96
2022-11-16T21:12:08.594Z,84.34
2022-11-16T21:14:36.622Z,84.87
2022-11-16T21:17:04.752Z,84.26
2022-11-16T21:19:32.770Z,84.18
2022-11-16T21:22:00.704Z,84.26
2022-11-16T21:24:32.117Z,84.49
2022-11-16T21:27:00.238Z,84.38
2022-11-16T21:29:28.603Z,83.84
2022-11-16T21:31:56.503Z,83.74
2022-11-16T21:34:27.745Z,83.67
2022-11-16T21:36:55.728Z,83.95
2022-11-16T21:39:23.667Z,83.17
2022-11-16T21:41:52.946Z,82.92
2022-11-16T21:44:21.022Z,82.86
2022-11-16T21:46:48.967Z,83.15
2022-11-16T21:49:16.936Z,82.71
2022-11-16T21:51:45.028Z,83.11
2022-11-16T21:54:13.733Z,82.86
2022-11-16T21:56:41.707Z,82.90
2022-11-16T21:59:11.397Z,83.54
2022-11-16T22:01:53.391Z,84.20
2022-11-16T22:04:38.854Z,83.33
2022-11-16T22:07:24.618Z,83.47
2022-11-16T22:09:52.740Z,83.59
2022-11-16T22:12:20.780Z,83.16
2022-11-16T22:14:50.209Z,83.38
2022-11-16T22:17:18.104Z,82.47
2022-11-16T22:19:46.332Z,83.09
2022-11-16T22:22:14.357Z,83.37
2022-11-16T22:24:42.616Z,83.05
2022-11-16T22:27:10.520Z,82.85
2022-11-16T22:29:38.643Z,83.46
2022-11-16T22:32:08.013Z,83.06
2022-11-16T22:34:36.035Z,83.24
2022-11-16T22:37:04.151Z,82.59
2022-11-16T22:39:32.056Z,83.21
2022-11-16T22:42:00.156Z,82.85
2022-11-16T22:44:28.261Z,82.60
2022-11-16T22:46:56.186Z,82.99
2022-11-16T22:49:25.878Z,82.87
2022-11-16T22:51:54.205Z,82.22
2022-11-16T22:54:27.437Z,82.96
2022-11-16T22:56:56.705Z,83.10
2022-11-16T22:59:24.688Z,82.47
2022-11-16T23:01:52.691Z,82.25
2022-11-16T23:04:20.622Z,82.87
2022-11-16T23:06:50.314Z,82.62
2022-11-16T23:09:18.328Z,82.09
2022-11-16T23:12:03.769Z,83.08
2022-11-16T23:14:49.175Z,82.33
2022-11-16T23:17:17.149Z,83.01
2022-11-16T23:20:02.631Z,83.12
2022-11-16T23:22:49.670Z,82.75
2022-11-16T23:25:34.934Z,82.72
2022-11-16T23:28:06.747Z,82.95
2022-11-16T23:30:35.821Z,82.59
2022-11-16T23:33:04.284Z,82.94
2022-11-16T23:35:32.305Z,82.29
2022-11-16T23:38:03.250Z,82.26
2022-11-16T23:40:35.059Z,82.76
2022-11-16T23:43:21.058Z,83.29
2022-11-16T23:45:49.425Z,82.90
2022-11-16T23:48:20.720Z,82.68
2022-11-16T23:50:48.752Z,82.72
2022-11-16T23:53:17.993Z,82.86
2022-11-16T23:55:47.521Z,82.49
2022-11-16T23:58:16.452Z,83.19
